createdAt,value
2023-05-01T00:03:13.769Z,76.50
2023-05-01T00:08:15.285Z,49.10
2023-05-01T00:13:21.135Z,63.30
2023-05-01T00:18:22.274Z,42.90
2023-05-01T00:23:23.562Z,53.20
2023-05-01T00:28:24.904Z,44.10
2023-05-01T00:33:25.866Z,37.40
2023-05-01T00:38:26.934Z,41.80
2023-05-01T00:43:28.038Z,69.80
2023-05-01T00:48:30.072Z,51.20
2023-05-01T00:53:33.181Z,55.70
2023-05-01T00:58:34.354Z,55.80
2023-05-01T01:03:35.360Z,47.30
2023-05-01T01:08:45.411Z,27.40
2023-05-01T01:13:59.644Z,23.00
2023-05-01T01:19:20.055Z,19.40
2023-05-01T01:24:37.621Z,73.60
2023-05-01T01:29:50.671Z,59.80
2023-05-01T01:34:55.753Z,35.90
2023-05-01T01:40:06.336Z,24.60
2023-05-01T01:45:37.026Z,30.20
2023-05-01T01:50:40.587Z,25.20
2023-05-01T01:55:44.554Z,22.60
2023-05-01T02:00:45.723Z,28.60
2023-05-01T02:05:48.988Z,27.50
2023-05-01T02:10:51.338Z,58.20
2023-05-01T02:15:54.293Z,56.40
2023-05-01T02:20:58.182Z,36.80
2023-05-01T02:26:03.449Z,36.30
2023-05-01T02:31:04.624Z,37.50
2023-05-01T02:36:06.181Z,45.90
2023-05-01T02:41:09.876Z,50.70
2023-05-01T02:46:13.542Z,41.40
2023-05-01T02:51:16.107Z,88.30
2023-05-01T02:56:17.494Z,63.90
2023-05-01T03:01:20.066Z,51.90
2023-05-01T03:06:21.318Z,38.00
2023-05-01T03:11:23.525Z,32.70
2023-05-01T03:16:24.526Z,24.80
2023-05-01T03:21:26.067Z,14.70
2023-05-01T03:26:27.845Z,30.30
2023-05-01T03:31:29.073Z,46.10
2023-05-01T03:36:33.117Z,44.70
2023-05-01T03:41:34.191Z,17.70
2023-05-01T03:46:48.264Z,16.60
2023-05-01T03:51:56.454Z,23.60
2023-05-01T03:56:57.967Z,18.90
2023-05-01T04:01:59.134Z,17.20
2023-05-01T04:07:02.246Z,23.20
2023-05-01T04:12:03.518Z,35.10
2023-05-01T04:17:04.676Z,22.20
2023-05-01T04:22:07.845Z,25.60
2023-05-01T04:27:09.325Z,18.20
2023-05-01T04:32:10.417Z,21.10
2023-05-01T04:37:13.735Z,19.90
2023-05-01T04:42:16.957Z,19.70
2023-05-01T04:47:18.364Z,22.50
2023-05-01T04:52:19.466Z,16.50
2023-05-01T04:57:30.442Z,13.90
2023-05-01T05:02:31.950Z,19.40
2023-05-01T05:07:33.394Z,18.00
2023-05-01T05:13:00.354Z,12.70
2023-05-01T05:18:01.706Z,24.70
2023-05-01T05:23:04.121Z,20.50
2023-05-01T05:28:05.198Z,20.70
2023-05-01T05:33:08.077Z,17.40
2023-05-01T05:38:09.796Z,18.80
2023-05-01T05:43:12.309Z,16.30
2023-05-01T05:48:13.923Z,14.10
2023-05-01T05:53:15.682Z,12.20
2023-05-01T05:58:19.531Z,24.30
2023-05-01T06:03:21.853Z,12.20
2023-05-01T06:08:24.286Z,14.90
2023-05-01T06:13:26.146Z,13.90
2023-05-01T06:18:27.384Z,15.50
2023-05-01T06:23:28.672Z,10.30
2023-05-01T06:28:47.996Z,8.10
2023-05-01T06:33:49.312Z,11.50
2023-05-01T06:38:56.689Z,9.50
2023-05-01T06:43:57.889Z,11.80
2023-05-01T06:48:58.880Z,8.10
2023-05-01T06:54:00.002Z,7.80
2023-05-01T06:59:01.050Z,10.40
2023-05-01T07:04:03.420Z,9.00
2023-05-01T07:09:04.679Z,6.00
2023-05-01T07:14:05.829Z,11.30
2023-05-01T07:19:06.992Z,6.40
2023-05-01T07:24:07.991Z,13.20
2023-05-01T07:29:08.978Z,11.40
2023-05-01T07:34:10.785Z,8.10
2023-05-01T07:39:13.151Z,7.90
2023-05-01T07:44:14.384Z,12.30
2023-05-01T07:49:15.440Z,6.30
2023-05-01T07:54:21.302Z,7.90
2023-05-01T07:59:22.380Z,7.40
2023-05-01T08:04:23.602Z,7.20
2023-05-01T08:09:24.679Z,6.90
2023-05-01T08:14:25.696Z,7.30
2023-05-01T08:19:27.305Z,8.20
2023-05-01T08:24:29.395Z,4.70
2023-05-01T08:29:30.471Z,5.80
2023-05-01T08:34:31.431Z,6.80
2023-05-01T08:39:32.673Z,8.40
2023-05-01T08:44:37.872Z,7.50
2023-05-01T08:49:41.237Z,6.90
2023-05-01T08:54:43.930Z,5.20
2023-05-01T08:59:45.512Z,5.40
2023-05-01T09:04:48.216Z,7.30
2023-05-01T09:09:49.238Z,4.60
2023-05-01T09:14:52.514Z,16.60
2023-05-01T09:19:53.839Z,5.40
2023-05-01T09:24:55.623Z,5.40
2023-05-01T09:29:56.702Z,4.30
2023-05-01T09:35:12.956Z,9.70
2023-05-01T09:40:14.514Z,5.20
2023-05-01T09:45:16.957Z,7.40
2023-05-01T09:50:29.488Z,4.30
2023-05-01T09:55:30.896Z,4.80
2023-05-01T10:00:46.475Z,6.00
2023-05-01T10:11:04.646Z,4.90
2023-05-01T10:16:06.827Z,4.40
2023-05-01T10:21:09.849Z,6.50
2023-05-01T10:31:15.727Z,5.30
2023-05-01T10:36:21.909Z,6.10
2023-05-01T10:41:57.587Z,5.70
2023-05-01T10:46:58.945Z,7.80
2023-05-01T10:52:03.010Z,4.50
2023-05-01T10:57:05.800Z,6.80
2023-05-01T11:02:21.720Z,7.00
2023-05-01T11:07:23.918Z,5.30
2023-05-01T11:12:51.044Z,6.80
2023-05-01T11:17:52.207Z,5.10
2023-05-01T11:22:56.507Z,4.00
2023-05-01T11:28:00.313Z,5.20
2023-05-01T11:33:03.505Z,5.20
2023-05-01T11:38:04.792Z,6.80
2023-05-01T11:43:07.889Z,4.70
2023-05-01T11:48:17.911Z,4.50
2023-05-01T11:53:20.365Z,3.30
2023-05-01T11:58:35.579Z,4.80
2023-05-01T12:03:41.990Z,6.20
2023-05-01T12:08:47.124Z,4.30
2023-05-01T12:13:49.748Z,4.10
2023-05-01T12:18:53.317Z,5.00
2023-05-01T12:23:55.096Z,7.30
2023-05-01T12:28:58.505Z,5.00
2023-05-01T12:34:01.945Z,7.20
2023-05-01T12:39:08.776Z,4.60
2023-05-01T12:44:17.991Z,7.30
2023-05-01T12:49:20.057Z,5.70
2023-05-01T12:54:38.848Z,4.70
2023-05-01T12:59:42.207Z,4.60
2023-05-01T13:04:44.672Z,4.30
2023-05-01T13:09:54.105Z,4.50
2023-05-01T13:14:56.078Z,3.70
2023-05-01T13:20:04.510Z,4.30
2023-05-01T13:25:16.714Z,5.10
2023-05-01T13:30:21.389Z,4.70
2023-05-01T13:35:24.238Z,4.70
2023-05-01T13:40:27.067Z,5.50
2023-05-01T13:45:28.172Z,5.20
2023-05-01T13:50:29.376Z,6.20
2023-05-01T13:55:32.010Z,7.70
2023-05-01T14:00:33.483Z,4.70
2023-05-01T14:05:36.339Z,5.00
2023-05-01T14:10:37.854Z,5.90
2023-05-01T14:15:43.300Z,4.80
2023-05-01T14:20:46.687Z,4.00
2023-05-01T14:25:48.471Z,7.40
2023-05-01T14:30:50.580Z,5.20
2023-05-01T14:35:52.931Z,6.50
2023-05-01T14:40:53.972Z,4.70
2023-05-01T14:45:55.122Z,4.30
2023-05-01T14:50:58.719Z,4.70
2023-05-01T14:55:59.776Z,7.20
2023-05-01T15:01:01.983Z,3.90
2023-05-01T15:06:03.458Z,3.50
2023-05-01T15:11:05.067Z,3.40
2023-05-01T15:16:16.129Z,7.60
2023-05-01T15:21:17.801Z,6.90
2023-05-01T15:26:19.102Z,5.20
2023-05-01T15:31:20.379Z,7.30
2023-05-01T15:36:21.487Z,5.10
2023-05-01T15:41:22.490Z,3.90
2023-05-01T15:46:26.112Z,5.90
2023-05-01T15:51:27.229Z,4.80
2023-05-01T15:56:28.555Z,4.10
2023-05-01T16:01:34.329Z,5.10
2023-05-01T16:06:36.209Z,5.50
2023-05-01T16:11:37.623Z,5.00
2023-05-01T16:16:41.773Z,6.40
2023-05-01T16:21:42.990Z,6.80
2023-05-01T16:26:44.358Z,8.30
2023-05-01T16:31:47.296Z,6.20
2023-05-01T16:36:48.878Z,8.30
2023-05-01T16:41:52.595Z,5.50
2023-05-01T16:46:55.656Z,6.20
2023-05-01T16:51:57.853Z,7.30
2023-05-01T16:56:58.939Z,7.60
2023-05-01T17:02:00.266Z,7.80
2023-05-01T17:07:01.448Z,6.20
2023-05-01T17:12:02.995Z,8.30
2023-05-01T17:17:07.193Z,5.20
2023-05-01T17:22:10.900Z,5.30
2023-05-01T17:27:13.085Z,7.80
2023-05-01T17:32:18.170Z,8.60
2023-05-01T17:37:31.573Z,8.70
2023-05-01T17:42:32.999Z,7.30
2023-05-01T17:47:34.485Z,7.40
2023-05-01T17:52:35.784Z,13.90
2023-05-01T17:57:41.233Z,7.40
2023-05-01T18:02:43.999Z,8.20
2023-05-01T18:07:45.515Z,10.40
2023-05-01T18:12:50.015Z,14.70
2023-05-01T18:17:51.539Z,14.10
2023-05-01T18:22:53.714Z,13.20
2023-05-01T18:27:55.727Z,19.80
2023-05-01T18:32:57.277Z,13.60
2023-05-01T18:37:58.496Z,14.90
2023-05-01T18:42:59.698Z,12.30
2023-05-01T18:48:00.880Z,15.20
2023-05-01T18:53:02.237Z,15.90
2023-05-01T18:58:03.223Z,26.50
2023-05-01T19:03:04.271Z,24.80
2023-05-01T19:08:06.832Z,24.30
2023-05-01T19:13:07.976Z,26.50
2023-05-01T19:18:09.948Z,15.70
2023-05-01T19:23:11.450Z,18.30
2023-05-01T19:28:12.824Z,20.70
2023-05-01T19:33:13.954Z,22.10
2023-05-01T19:38:15.411Z,22.10
2023-05-01T19:43:16.561Z,27.70
2023-05-01T19:48:17.983Z,23.00
2023-05-01T19:53:20.386Z,21.20
2023-05-01T19:58:26.048Z,21.70
2023-05-01T20:03:27.661Z,22.20
2023-05-01T20:08:29.096Z,25.30
2023-05-01T20:13:30.312Z,16.10
2023-05-01T20:18:31.329Z,23.80
2023-05-01T20:23:33.919Z,22.70
2023-05-01T20:28:34.935Z,22.70
2023-05-01T20:33:36.167Z,22.20
2023-05-01T20:38:46.829Z,28.60
2023-05-01T20:43:47.904Z,41.70
2023-05-01T20:48:48.889Z,34.50
2023-05-01T20:53:49.849Z,37.50
2023-05-01T20:58:50.861Z,29.80
2023-05-01T21:03:52.066Z,43.20
2023-05-01T21:08:55.124Z,36.50
2023-05-01T21:14:02.335Z,33.90
2023-05-01T21:19:03.405Z,34.40
2023-05-01T21:24:06.898Z,27.80
2023-05-01T21:29:09.068Z,31.70
2023-05-01T21:34:10.078Z,38.20
2023-05-01T21:39:15.021Z,39.00
2023-05-01T21:44:17.066Z,40.40
2023-05-01T21:49:22.315Z,32.90
2023-05-01T21:54:23.637Z,30.40
2023-05-01T21:59:30.267Z,29.30
2023-05-01T22:04:31.334Z,30.70
2023-05-01T22:09:32.733Z,28.80
2023-05-01T22:19:41.443Z,29.20
2023-05-01T22:24:42.579Z,28.00
2023-05-01T22:29:43.933Z,27.20
2023-05-01T22:34:44.997Z,29.60
2023-05-01T22:39:46.141Z,25.20
2023-05-01T22:44:47.609Z,26.10
2023-05-01T22:49:49.027Z,19.60
2023-05-01T22:54:52.168Z,22.30
2023-05-01T22:59:53.605Z,17.80
2023-05-01T23:04:54.753Z,19.60
2023-05-01T23:09:56.595Z,22.30
2023-05-01T23:15:00.536Z,29.40
2023-05-01T23:20:02.110Z,28.90
2023-05-01T23:25:05.364Z,34.90
2023-05-01T23:30:07.688Z,27.10
2023-05-01T23:35:23.136Z,35.80
2023-05-01T23:40:25.598Z,32.00
2023-05-01T23:45:29.360Z,30.80
2023-05-01T23:50:32.667Z,27.30
